^^
Station Historical Data
Daily Summary for Nil La, TWC- Units:  Metric    English   Both
« Previous Day
Next Day »
Daily Weekly Monthly Yearly Custom
  High: Low: Average:
Temperature: -17.8 °C 8.9 °C 15.9 °C
Dew Point: -17.8 °C 6.6 °C 8.2 °C
Humidity: Humidity% 33% 65%
Wind Speed: 0km/h 0km/h 0.5km/h
Wind Gust: 0km/h - -
Wind- - WNW
Pressure: 0 hPa 1018.2 hPa -
Precipitation: 0 mm    
Historical Graphs
 
 
Tabular Data for Nil La, TWC-
Time Temperature Dew Point Pressure Wind Wind Speed Wind Gust Humidity Rainfall Rate (Hourly) solar Conditions
-17.8 °C -17.8 °C 0 hPa Calm     Humidity% 0 mm SolarRadiationWatts/m^2 W/m2 Conditions
00:00 13.4 °C 8.9 °C 1019.5 hPa Calm     74% 0 mm 0.0 W/m2
00:06 13.3 °C 9 °C 1019.5 hPa Calm     75% 0 mm 0.0 W/m2
00:13 13.2 °C 8.9 °C 1019.5 hPa Calm     75% 0 mm 0.0 W/m2
00:19 13 °C 8.9 °C 1019.5 hPa Calm     76% 0 mm 0.0 W/m2
00:26 12.8 °C 8.9 °C 1019.5 hPa Calm     77% 0 mm 0.0 W/m2
00:33 12.7 °C 8.8 °C 1019.5 hPa Calm     77% 0 mm 0.0 W/m2
00:40 12.4 °C 8.7 °C 1019.5 hPa Calm     78% 0 mm 0.0 W/m2
00:47 12.2 °C 8.7 °C 1019.5 hPa Calm     79% 0 mm 0.0 W/m2
00:53 12.1 °C 8.8 °C 1019.5 hPa Calm     80% 0 mm 0.0 W/m2
01:00 11.9 °C 8.7 °C 1019.5 hPa Calm     81% 0 mm 0.0 W/m2
01:06 11.8 °C 8.8 °C 1019.5 hPa Calm     82% 0 mm 0.0 W/m2
01:13 11.8 °C 8.8 °C 1019.5 hPa Calm     82% 0 mm 0.0 W/m2
01:19 11.8 °C 9 °C 1019.5 hPa Calm     83% 0 mm 0.0 W/m2
01:26 11.7 °C 8.9 °C 1019.2 hPa Calm     83% 0 mm 0.0 W/m2
01:33 11.7 °C 8.7 °C 1019.5 hPa Calm     82% 0 mm 0.0 W/m2
01:39 11.6 °C 8.8 °C 1019.5 hPa Calm     83% 0 mm 0.0 W/m2
01:46 11.5 °C 8.7 °C 1019.5 hPa Calm     83% 0 mm 0.0 W/m2
01:53 11.5 °C 8.7 °C 1019.5 hPa Calm     83% 0 mm 0.0 W/m2
02:00 11.4 °C 8.8 °C 1019.2 hPa Calm     84% 0 mm 0.0 W/m2
02:06 11.3 °C 8.7 °C 1019.5 hPa Calm     84% 0 mm 0.0 W/m2
02:14 11.2 °C 8.6 °C 1019.5 hPa Calm     84% 0 mm 0.0 W/m2
02:21 11.2 °C 8.8 °C 1019.2 hPa Calm     85% 0 mm 0.0 W/m2
02:27 11.1 °C 8.7 °C 1019.2 hPa Calm     85% 0 mm 0.0 W/m2
02:33 11 °C 8.7 °C 1019.2 hPa Calm     86% 0 mm 0.0 W/m2
02:40 10.9 °C 8.6 °C 1019.2 hPa Calm     86% 0 mm 0.0 W/m2
02:46 10.7 °C 8.5 °C 1018.8 hPa Calm     86% 0 mm 0.0 W/m2
02:53 10.6 °C 8.5 °C 1018.8 hPa Calm     87% 0 mm 0.0 W/m2
02:59 10.6 °C 8.5 °C 1018.8 hPa Calm     87% 0 mm 0.0 W/m2
03:06 10.7 °C 8.6 °C 1018.8 hPa Calm     87% 0 mm 0.0 W/m2
03:13 10.4 °C 8.2 °C 1018.8 hPa Calm     86% 0 mm 0.0 W/m2
03:17 10.4 °C 8.3 °C 1018.8 hPa Calm     87% 0 mm 0.0 W/m2
03:23 10.3 °C 8.2 °C 1018.8 hPa Calm     87% 0 mm 0.0 W/m2
03:30 10.2 °C 8.3 °C 1018.8 hPa Calm     88% 0 mm 0.0 W/m2
03:39 10 °C 8.1 °C 1018.5 hPa Calm     88% 0 mm 0.0 W/m2
03:46 9.9 °C 8 °C 1018.8 hPa Calm     88% 0 mm 0.0 W/m2
03:52 9.8 °C 7.9 °C 1018.8 hPa Calm     88% 0 mm 0.0 W/m2
03:59 9.7 °C 8 °C 1018.8 hPa Calm     89% 0 mm 0.0 W/m2
04:05 9.7 °C 8.1 °C 1018.8 hPa Calm     90% 0 mm 0.0 W/m2
04:11 9.7 °C 8.1 °C 1018.8 hPa Calm     90% 0 mm 0.0 W/m2
04:18 9.8 °C 8.2 °C 1019.2 hPa Calm     90% 0 mm 0.0 W/m2
04:26 9.6 °C 7.9 °C 1019.2 hPa Calm     89% 0 mm 0.0 W/m2
04:31 9.6 °C 7.9 °C 1018.8 hPa Calm     89% 0 mm 0.0 W/m2
04:39 9.4 °C 7.8 °C 1019.2 hPa Calm     90% 0 mm 0.0 W/m2
04:45 9.4 °C 7.8 °C 1019.2 hPa Calm     90% 0 mm 0.0 W/m2
04:52 9.4 °C 7.8 °C 1019.2 hPa Calm     90% 0 mm 0.0 W/m2
04:58 9.3 °C 7.7 °C 1018.8 hPa Calm     90% 0 mm 0.0 W/m2
05:05 9.2 °C 7.6 °C 1018.8 hPa Calm     90% 0 mm 0.0 W/m2
05:11 9.1 °C 7.5 °C 1018.8 hPa Calm     90% 0 mm 0.0 W/m2
05:18 9 °C 7.6 °C 1018.8 hPa Calm     91% 0 mm 0.0 W/m2
05:24 9.1 °C 7.7 °C 1018.8 hPa Calm     91% 0 mm 0.0 W/m2
05:31 9.1 °C 7.7 °C 1018.8 hPa Calm     91% 0 mm 0.0 W/m2
05:36 9.1 °C 7.7 °C 1018.8 hPa Calm     91% 0 mm 0.0 W/m2
05:42 9.1 °C 7.7 °C 1018.8 hPa Calm     91% 0 mm 0.0 W/m2
05:48 9.1 °C 7.7 °C 1019.2 hPa Calm     91% 0 mm 0.0 W/m2
05:55 9.1 °C 7.7 °C 1019.2 hPa Calm     91% 0 mm 0.0 W/m2
06:01 9 °C 7.8 °C 1019.2 hPa Calm     92% 0 mm 0.0 W/m2
06:08 9 °C 7.6 °C 1019.2 hPa Calm     91% 0 mm 0.0 W/m2
06:15 8.9 °C 7.5 °C 1019.5 hPa Calm     91% 0 mm 0.0 W/m2
06:21 9 °C 7.8 °C 1019.5 hPa Calm     92% 0 mm 0.0 W/m2
06:28 9.4 °C 8.3 °C 1019.5 hPa Calm     93% 0 mm 0.0 W/m2
06:35 9.5 °C 8.3 °C 1019.5 hPa Calm     92% 0 mm 0.0 W/m2
06:41 9.6 °C 8.2 °C 1019.5 hPa Calm     91% 0 mm 0.0 W/m2
06:48 9.7 °C 8.1 °C 1019.9 hPa Calm     90% 0 mm 0.0 W/m2
06:54 9.7 °C 8 °C 1019.9 hPa Calm     89% 0 mm 0.0 W/m2
07:00 9.7 °C 8 °C 1019.9 hPa Calm     89% 0 mm 0.0 W/m2
07:07 9.6 °C 7.9 °C 1020.2 hPa Calm     89% 0 mm 0.0 W/m2
07:13 9.5 °C 7.8 °C 1020.2 hPa Calm     89% 0 mm 0.0 W/m2
07:20 9.5 °C 7.8 °C 1020.5 hPa Calm     89% 0 mm 0.0 W/m2
07:27 9.3 °C 7.6 °C 1020.5 hPa Calm     89% 0 mm 0.0 W/m2
07:33 9.2 °C 7.5 °C 1020.5 hPa Calm     89% 0 mm 7.0 W/m2
07:40 9 °C 7.4 °C 1020.5 hPa Calm     90% 0 mm 9.0 W/m2
07:47 9 °C 7.4 °C 1020.9 hPa Calm     90% 0 mm 12.0 W/m2
07:53 9 °C 7.4 °C 1020.9 hPa Calm     90% 0 mm 14.0 W/m2
08:00 8.9 °C 7.5 °C 1020.9 hPa Calm     91% 0 mm 16.0 W/m2
08:06 9 °C 7.6 °C 1020.9 hPa Calm     91% 0 mm 18.0 W/m2
08:13 9.2 °C 8 °C 1021.2 hPa Calm     92% 0 mm 23.0 W/m2
08:19 9.3 °C 8.1 °C 1021.2 hPa Calm     92% 0 mm 109.0 W/m2
08:26 9.7 °C 8.6 °C 1021.2 hPa Calm     93% 0 mm 130.0 W/m2
08:32 10.2 °C 9 °C 1021.2 hPa Calm     92% 0 mm 151.0 W/m2
08:38 10.9 °C 9.5 °C 1021.6 hPa Calm     91% 0 mm 178.0 W/m2
08:45 11.3 °C 9.7 °C 1021.6 hPa Calm     90% 0 mm 207.0 W/m2
08:51 11.9 °C 10 °C 1021.6 hPa Calm     88% 0 mm 230.0 W/m2
08:57 12.5 °C 10.2 °C 1021.6 hPa Calm     86% 0 mm 251.0 W/m2
09:04 12.9 °C 9.9 °C 1021.6 hPa Calm     82% 0 mm 267.0 W/m2
09:11 13.2 °C 10.2 °C 1021.6 hPa Calm     82% 0 mm 290.0 W/m2
09:18 13.6 °C 10 °C 1021.6 hPa Calm     79% 0 mm 308.0 W/m2
09:25 14.1 °C 10.3 °C 1021.6 hPa Calm     78% 0 mm 325.0 W/m2
09:31 14.4 °C 10.4 °C 1021.6 hPa Calm     77% 0 mm 345.0 W/m2
09:38 14.8 °C 10.4 °C 1021.6 hPa Calm     75% 0 mm 364.0 W/m2
09:44 15.1 °C 10.5 °C 1021.9 hPa Calm     74% 0 mm 380.0 W/m2
09:50 15.3 °C 10.3 °C 1021.6 hPa Calm     72% 0 mm 394.0 W/m2
09:58 15.7 °C 10 °C 1021.6 hPa Calm     69% 0 mm 413.0 W/m2
10:04 15.9 °C 10.2 °C 1021.6 hPa Calm     69% 0 mm 431.0 W/m2
10:10 16.2 °C 10.5 °C 1021.6 hPa WNW 1.4 km/h 1.6 km/h 69% 0 mm 446.0 W/m2
10:16 16.5 °C 10.1 °C 1021.6 hPa Calm     66% 0 mm 459.0 W/m2
10:23 16.6 °C 9.5 °C 1021.6 hPa Calm     63% 0 mm 475.0 W/m2
10:29 16.7 °C 9.4 °C 1021.6 hPa Calm     62% 0 mm 487.0 W/m2
10:36 16.9 °C 9.3 °C 1021.2 hPa Calm     61% 0 mm 497.0 W/m2
10:42 17.6 °C 9.5 °C 1021.2 hPa Calm     59% 0 mm 510.0 W/m2
10:48 17.8 °C 9.4 °C 1021.2 hPa Calm     58% 0 mm 522.0 W/m2
10:54 17.9 °C 9.5 °C 1021.2 hPa Calm     58% 0 mm 531.0 W/m2
10:59 17.8 °C 9.4 °C 1021.2 hPa Calm     58% 0 mm 541.0 W/m2
11:05 17.9 °C 9.5 °C 1021.2 hPa Calm     58% 0 mm 552.0 W/m2
11:12 18.7 °C 9.5 °C 1021.2 hPa Calm     55% 0 mm 561.0 W/m2
11:19 19.1 °C 9.8 °C 1020.9 hPa Calm     55% 0 mm 568.0 W/m2
11:25 19.3 °C 9.5 °C 1020.9 hPa WNW 3.2 km/h 3.2 km/h 53% 0 mm 577.0 W/m2
11:31 19.5 °C 9.1 °C 1020.9 hPa Calm   6.4 km/h 51% 0 mm 585.0 W/m2
11:39 19.7 °C 9 °C 1020.5 hPa WNW 7.9 km/h 12.9 km/h 50% 0 mm 592.0 W/m2
11:44 19.6 °C 8.6 °C 1020.5 hPa WNW 9.7 km/h 12.9 km/h 49% 0 mm 598.0 W/m2
11:49 19.5 °C 8.5 °C 1020.5 hPa WNW 7.9 km/h 12.9 km/h 49% 0 mm 601.0 W/m2
11:54 19.6 °C 8.9 °C 1020.5 hPa WNW 1.4 km/h 12.9 km/h 50% 0 mm 608.0 W/m2
12:00 19.8 °C 8.8 °C 1020.5 hPa WNW 4.7 km/h 8 km/h 49% 0 mm 615.0 W/m2
12:07 20 °C 8.7 °C 1020.5 hPa Calm   11.3 km/h 48% 0 mm 615.0 W/m2
12:14 20.1 °C 8.7 °C 1020.5 hPa WNW 7.9 km/h 11.3 km/h 48% 0 mm 619.0 W/m2
12:19 20.3 °C 8.6 °C 1020.5 hPa Calm   9.7 km/h 47% 0 mm 622.0 W/m2
12:26 20.5 °C 8.8 °C 1020.2 hPa Calm   4.8 km/h 47% 0 mm 624.0 W/m2
12:32 20.6 °C 8.6 °C 1020.2 hPa Calm   11.3 km/h 46% 0 mm 626.0 W/m2
12:39 20.8 °C 8.4 °C 1020.2 hPa WNW 9.7 km/h 9.7 km/h 45% 0 mm 628.0 W/m2
12:44 21.1 °C 8.7 °C 1020.2 hPa WNW 6.4 km/h 6.4 km/h 45% 0 mm 628.0 W/m2
12:51 21.1 °C 8.4 °C 1020.2 hPa WNW 11.1 km/h 11.3 km/h 44% 0 mm 628.0 W/m2
12:57 21.1 °C 8.4 °C 1019.9 hPa WNW 4.7 km/h 11.3 km/h 44% 0 mm 626.0 W/m2
13:03 21.1 °C 8.7 °C 1019.9 hPa Calm   8 km/h 45% 0 mm 624.0 W/m2
13:09 21.3 °C 8.2 °C 1019.9 hPa Calm   9.7 km/h 43% 0 mm 622.0 W/m2
13:14 21.4 °C 8.6 °C 1019.9 hPa Calm   1.6 km/h 44% 0 mm 621.0 W/m2
13:21 21.8 °C 8.7 °C 1019.9 hPa Calm   8 km/h 43% 0 mm 619.0 W/m2
13:28 21.8 °C 8.3 °C 1019.5 hPa Calm     42% 0 mm 612.0 W/m2
13:34 22.1 °C 8.6 °C 1019.5 hPa WNW 3.2 km/h 8 km/h 42% 0 mm 608.0 W/m2
13:40 22.1 °C 8.2 °C 1019.5 hPa Calm     41% 0 mm 603.0 W/m2
13:47 22.3 °C 8.4 °C 1019.5 hPa Calm   3.2 km/h 41% 0 mm 596.0 W/m2
13:53 22.4 °C 8.1 °C 1019.5 hPa Calm   6.4 km/h 40% 0 mm 591.0 W/m2
13:59 22.4 °C 8.5 °C 1019.2 hPa Calm   8 km/h 41% 0 mm 584.0 W/m2
14:05 22.6 °C 8.3 °C 1019.2 hPa Calm   1.6 km/h 40% 0 mm 577.0 W/m2
14:12 22.8 °C 8.1 °C 1018.8 hPa Calm     39% 0 mm 566.0 W/m2
14:18 22.7 °C 7.6 °C 1018.8 hPa Calm   4.8 km/h 38% 0 mm 557.0 W/m2
14:24 22.5 °C 7.9 °C 1018.8 hPa Calm   9.7 km/h 39% 0 mm 547.0 W/m2
14:31 22.8 °C 8.1 °C 1018.8 hPa Calm     39% 0 mm 536.0 W/m2
14:37 23.1 °C 7.6 °C 1018.8 hPa Calm     37% 0 mm 527.0 W/m2
14:43 23.1 °C 7.6 °C 1018.8 hPa Calm   4.8 km/h 37% 0 mm 519.0 W/m2
14:48 23.2 °C 7.7 °C 1018.8 hPa Calm     37% 0 mm 510.0 W/m2
14:55 23.2 °C 7.3 °C 1018.5 hPa Calm     36% 0 mm 497.0 W/m2
15:01 23.8 °C 7.4 °C 1018.5 hPa Calm     35% 0 mm 485.0 W/m2
15:07 23.9 °C 7.1 °C 1018.5 hPa Calm   1.6 km/h 34% 0 mm 471.0 W/m2
15:15 23.8 °C 7.4 °C 1018.5 hPa Calm   4.8 km/h 35% 0 mm 454.0 W/m2
15:21 24 °C 7.2 °C 1018.5 hPa Calm     34% 0 mm 441.0 W/m2
15:27 23.9 °C 6.6 °C 1018.5 hPa Calm   1.6 km/h 33% 0 mm 427.0 W/m2
15:33 23.6 °C 6.8 °C 1018.5 hPa Calm   3.2 km/h 34% 0 mm 408.0 W/m2
15:40 23.7 °C 7.3 °C 1018.5 hPa Calm     35% 0 mm 392.0 W/m2
15:45 23.9 °C 7.1 °C 1018.5 hPa Calm     34% 0 mm 381.0 W/m2
15:51 24.2 °C 7.3 °C 1018.2 hPa Calm     34% 0 mm 366.0 W/m2
15:57 24.2 °C 7.3 °C 1018.2 hPa Calm     34% 0 mm 348.0 W/m2
16:04 24.2 °C 7.3 °C 1018.2 hPa Calm   3.2 km/h 34% 0 mm 329.0 W/m2
16:10 24.1 °C 7.3 °C 1018.2 hPa Calm     34% 0 mm 311.0 W/m2
16:15 23.9 °C 6.6 °C 1018.2 hPa Calm     33% 0 mm 299.0 W/m2
16:21 23.7 °C 6.9 °C 1018.2 hPa Calm     34% 0 mm 279.0 W/m2
16:27 24.1 °C 6.8 °C 1018.2 hPa Calm     33% 0 mm 264.0 W/m2
16:34 24.3 °C 7.4 °C 1018.5 hPa Calm     34% 0 mm 241.0 W/m2
16:40 24.2 °C 7.3 °C 1018.2 hPa Calm     34% 0 mm 220.0 W/m2
16:47 24.3 °C 7.4 °C 1018.2 hPa Calm     34% 0 mm 199.0 W/m2
16:53 24.3 °C 7 °C 1018.2 hPa Calm     33% 0 mm 171.0 W/m2
16:59 24.3 °C 7.4 °C 1018.2 hPa Calm     34% 0 mm 148.0 W/m2
17:05 24.2 °C 7.3 °C 1018.2 hPa Calm     34% 0 mm 127.0 W/m2
17:12 24.2 °C 7.8 °C 1018.5 hPa Calm     35% 0 mm 98.0 W/m2
17:19 23.9 °C 7.1 °C 1018.5 hPa Calm     34% 0 mm 79.0 W/m2
17:25 23.9 °C 7.1 °C 1018.5 hPa Calm     34% 0 mm 62.0 W/m2
17:32 23.9 °C 7.5 °C 1018.5 hPa Calm     35% 0 mm 40.0 W/m2
17:38 23.8 °C 7.4 °C 1018.5 hPa Calm     35% 0 mm 26.0 W/m2
17:47 23.4 °C 7.5 °C 1018.5 hPa Calm     36% 0 mm 12.0 W/m2
17:54 23.1 °C 7.6 °C 1018.8 hPa Calm     37% 0 mm 9.0 W/m2
18:00 22.7 °C 7.6 °C 1018.8 hPa Calm     38% 0 mm 7.0 W/m2
18:06 22.3 °C 8 °C 1018.8 hPa Calm     40% 0 mm 0.0 W/m2
18:13 21.8 °C 8.3 °C 1018.8 hPa Calm     42% 0 mm 0.0 W/m2
18:20 21.3 °C 7.9 °C 1018.8 hPa Calm     42% 0 mm 0.0 W/m2
18:26 21 °C 7.9 °C 1018.8 hPa Calm     43% 0 mm 0.0 W/m2
18:31 20.8 °C 8.1 °C 1018.8 hPa Calm     44% 0 mm 0.0 W/m2
18:38 20.6 °C 8.2 °C 1018.8 hPa Calm     45% 0 mm 0.0 W/m2
18:45 20.2 °C 8.5 °C 1019.2 hPa Calm     47% 0 mm 0.0 W/m2
18:52 19.9 °C 8.9 °C 1019.2 hPa Calm     49% 0 mm 0.0 W/m2
18:58 19.6 °C 8.6 °C 1019.2 hPa Calm     49% 0 mm 0.0 W/m2
19:05 19.3 °C 8.6 °C 1019.2 hPa Calm     50% 0 mm 0.0 W/m2
19:12 19.1 °C 8.7 °C 1019.2 hPa Calm     51% 0 mm 0.0 W/m2
19:18 18.8 °C 9 °C 1019.5 hPa Calm     53% 0 mm 0.0 W/m2
19:25 18.5 °C 9 °C 1019.5 hPa Calm     54% 0 mm 0.0 W/m2
19:31 18.3 °C 9.4 °C 1019.5 hPa Calm     56% 0 mm 0.0 W/m2
19:38 18 °C 9.1 °C 1019.5 hPa Calm     56% 0 mm 0.0 W/m2
19:44 17.8 °C 9.4 °C 1019.5 hPa Calm     58% 0 mm 0.0 W/m2
Canyon Roadhouse, Fishriver Canyon, Namibia
Compliments of Weather Underground - 2.5 mb